Time;durP1;ratioP1;P1;durP2;ratioP2;P2;SDS_P1;SDS_P2;PMS_P1;PMS_P2;Temp;Humidity;BMP_temperature;BMP_pressure;BME280_temperature;BME280_humidity;BME280_pressure;Samples;Min_cycle;Max_cycle;Signal;HPM_P1;HPM_P2
2023/09/09 00:01:05;;;;;;;8.30;7.60;;;16.30;80.70;;;;;;6185812;28;20187;-68
2023/09/09 00:04:06;;;;;;;10.23;8.30;;;16.30;80.70;;;;;;6184506;28;20240;-68
2023/09/09 00:07:11;;;;;;;9.03;7.57;;;16.20;80.70;;;;;;6201030;28;20187;-68
2023/09/09 00:10:12;;;;;;;10.07;7.73;;;16.20;80.80;;;;;;6185995;28;20200;-68
2023/09/09 00:13:13;;;;;;;8.43;7.50;;;16.20;80.70;;;;;;6190686;28;20183;-68
2023/09/09 00:16:14;;;;;;;9.13;8.27;;;16.20;80.80;;;;;;6216319;28;20218;-68
2023/09/09 00:19:15;;;;;;;9.13;8.23;;;16.20;81.20;;;;;;6216384;28;20194;-69
2023/09/09 00:22:17;;;;;;;9.07;8.17;;;16.20;81.20;;;;;;6191211;28;20199;-69
2023/09/09 00:25:17;;;;;;;8.93;8.03;;;16.10;81.20;;;;;;6185656;28;20244;-69
2023/09/09 00:28:20;;;;;;;9.57;8.57;;;16.10;81.40;;;;;;6197934;28;20198;-69
2023/09/09 00:31:21;;;;;;;8.60;7.80;;;16.10;81.30;;;;;;6201126;28;20331;-69
2023/09/09 00:34:21;;;;;;;9.27;8.27;;;16.10;81.30;;;;;;6191743;28;20195;-69
2023/09/09 00:37:22;;;;;;;8.57;7.77;;;16.10;81.40;;;;;;6195589;28;20275;-69
2023/09/09 00:40:23;;;;;;;8.83;8.07;;;16.00;81.50;;;;;;6192040;28;20195;-69
2023/09/09 00:43:23;;;;;;;7.97;7.17;;;16.00;81.50;;;;;;6193666;28;20201;-69
2023/09/09 00:46:24;;;;;;;8.43;7.83;;;16.00;81.50;;;;;;6169853;28;20208;-69
2023/09/09 00:49:25;;;;;;;8.40;7.60;;;16.00;81.20;;;;;;6208476;28;20184;-69
2023/09/09 00:52:26;;;;;;;8.87;7.80;;;16.00;81.50;;;;;;6188207;28;20194;-69
2023/09/09 00:55:27;;;;;;;9.77;8.73;;;16.00;81.50;;;;;;6184039;28;20195;-69
2023/09/09 00:58:31;;;;;;;8.03;7.23;;;15.90;81.60;;;;;;6204571;28;20202;-69
2023/09/09 01:01:32;;;;;;;9.17;8.00;;;15.80;81.50;;;;;;6202377;28;20264;-69
2023/09/09 01:04:33;;;;;;;8.80;8.00;;;15.80;81.50;;;;;;6193643;28;20226;-69
2023/09/09 01:07:49;;;;;;;9.03;8.23;;;15.80;81.40;;;;;;6199384;28;20192;-69
2023/09/09 01:10:50;;;;;;;12.90;8.47;;;15.80;81.70;;;;;;6222094;28;20230;-69
2023/09/09 01:13:51;;;;;;;9.47;8.57;;;15.80;81.40;;;;;;6196698;28;20184;-69
2023/09/09 01:16:53;;;;;;;9.00;8.10;;;15.80;82.00;;;;;;6217448;28;20183;-69
2023/09/09 01:20:00;;;;;;;9.13;7.97;;;15.80;81.80;;;;;;6235874;28;20207;-69
2023/09/09 01:23:00;;;;;;;9.57;8.67;;;15.70;81.80;;;;;;6202673;28;20228;-69
2023/09/09 01:26:01;;;;;;;10.33;8.40;;;15.70;82.10;;;;;;6180940;28;20202;-69
2023/09/09 01:29:02;;;;;;;10.07;8.40;;;15.60;81.80;;;;;;6183524;28;20186;-69
2023/09/09 01:32:03;;;;;;;9.40;8.53;;;15.60;81.90;;;;;;6217140;28;20196;-69
2023/09/09 01:35:06;;;;;;;9.40;8.50;;;15.60;81.90;;;;;;6200153;28;20194;-69
2023/09/09 01:38:07;;;;;;;8.87;7.97;;;15.60;81.80;;;;;;6185488;28;20203;-69
2023/09/09 01:41:08;;;;;;;9.20;8.37;;;15.60;82.20;;;;;;6195652;28;20192;-69
2023/09/09 01:44:08;;;;;;;9.60;8.70;;;15.60;82.20;;;;;;6226911;28;20269;-69
2023/09/09 01:47:09;;;;;;;9.13;8.17;;;15.50;82.10;;;;;;6182332;28;20198;-69
2023/09/09 01:50:10;;;;;;;9.00;8.10;;;15.50;82.40;;;;;;6212630;28;20193;-69
2023/09/09 01:53:11;;;;;;;9.47;8.57;;;15.50;82.40;;;;;;6189608;28;20188;-69
2023/09/09 01:56:12;;;;;;;9.27;8.23;;;15.50;82.00;;;;;;6214340;28;20199;-69
2023/09/09 01:59:12;;;;;;;8.80;7.97;;;15.50;82.30;;;;;;6188136;28;20196;-69
2023/09/09 02:02:16;;;;;;;9.63;8.73;;;15.50;82.50;;;;;;6210883;28;20211;-69
2023/09/09 02:05:16;;;;;;;9.07;8.27;;;15.50;82.50;;;;;;6193162;28;20214;-69
2023/09/09 02:08:17;;;;;;;8.97;8.07;;;15.50;82.40;;;;;;6173499;28;20195;-69
2023/09/09 02:11:19;;;;;;;9.37;8.57;;;15.40;82.60;;;;;;6195503;28;20196;-69
2023/09/09 02:14:19;;;;;;;9.33;8.43;;;15.40;82.40;;;;;;6189122;28;20262;-69
2023/09/09 02:17:20;;;;;;;8.60;7.80;;;15.40;82.10;;;;;;6194607;28;20195;-69
2023/09/09 02:20:21;;;;;;;10.23;9.23;;;15.40;82.40;;;;;;6205569;28;20192;-69
2023/09/09 02:23:21;;;;;;;8.63;7.83;;;15.30;82.70;;;;;;6206664;28;20234;-69
2023/09/09 02:26:22;;;;;;;12.27;8.57;;;15.30;82.20;;;;;;6209192;28;20212;-69
2023/09/09 02:29:23;;;;;;;9.07;7.73;;;15.30;82.20;;;;;;6192545;28;20195;-69
2023/09/09 02:32:23;;;;;;;8.83;8.03;;;15.30;82.00;;;;;;6210249;28;20187;-69
2023/09/09 02:35:24;;;;;;;11.07;8.30;;;15.20;82.10;;;;;;6185977;28;20183;-69
2023/09/09 02:38:25;;;;;;;9.67;8.33;;;15.20;82.50;;;;;;6190782;28;20257;-69
2023/09/09 02:41:25;;;;;;;9.00;7.87;;;15.20;82.50;;;;;;6208254;28;20199;-69
2023/09/09 02:44:26;;;;;;;9.23;8.33;;;15.20;82.60;;;;;;6192409;28;20215;-69
2023/09/09 02:47:27;;;;;;;10.33;9.27;;;15.20;82.70;;;;;;6189031;28;20183;-69
2023/09/09 02:50:27;;;;;;;9.97;8.50;;;15.10;82.50;;;;;;6209186;28;20195;-70
2023/09/09 02:53:30;;;;;;;8.53;7.73;;;15.10;83.00;;;;;;6186746;28;20199;-70
2023/09/09 02:56:30;;;;;;;9.03;8.10;;;15.00;83.00;;;;;;6193989;28;20275;-70
2023/09/09 02:59:34;;;;;;;8.83;8.03;;;15.00;83.00;;;;;;6180216;28;20194;-70
2023/09/09 03:02:35;;;;;;;9.93;8.97;;;15.00;82.70;;;;;;6190678;28;20223;-70
2023/09/09 03:05:36;;;;;;;8.97;8.07;;;15.00;82.80;;;;;;6209827;28;20214;-70
2023/09/09 03:08:37;;;;;;;9.47;8.57;;;15.00;83.00;;;;;;6210366;28;20187;-70
2023/09/09 03:11:37;;;;;;;9.17;8.20;;;15.00;83.20;;;;;;6179020;28;20195;-70
2023/09/09 03:14:38;;;;;;;9.67;8.67;;;15.00;83.00;;;;;;6169780;28;20193;-70
2023/09/09 03:17:39;;;;;;;10.77;8.70;;;15.00;82.90;;;;;;6174863;28;20195;-71
2023/09/09 03:20:39;;;;;;;10.20;8.30;;;14.90;83.30;;;;;;6212510;28;20201;-71
2023/09/09 03:23:40;;;;;;;8.73;7.83;;;14.90;83.20;;;;;;6208929;28;20249;-71
2023/09/09 03:26:41;;;;;;;11.50;9.30;;;14.90;83.30;;;;;;6213245;28;20223;-71
2023/09/09 03:29:42;;;;;;;9.50;8.60;;;14.90;83.60;;;;;;6224054;28;20186;-70
2023/09/09 03:32:42;;;;;;;9.57;8.67;;;14.90;83.40;;;;;;6192732;28;20187;-70
2023/09/09 03:35:43;;;;;;;11.73;9.07;;;14.90;83.70;;;;;;6185114;28;20204;-70
2023/09/09 03:38:44;;;;;;;10.77;9.67;;;14.90;83.30;;;;;;6214132;28;20271;-70
2023/09/09 03:41:44;;;;;;;10.33;9.33;;;14.90;83.50;;;;;;6174443;28;20192;-70
2023/09/09 03:44:45;;;;;;;10.87;8.47;;;14.90;83.30;;;;;;6203621;28;20265;-70
2023/09/09 03:47:46;;;;;;;9.27;8.47;;;14.80;83.30;;;;;;6194403;28;20195;-70
2023/09/09 03:50:46;;;;;;;10.97;9.10;;;14.80;83.30;;;;;;6202916;28;20197;-70
2023/09/09 03:53:47;;;;;;;9.90;9.03;;;14.80;83.40;;;;;;6190193;28;20191;-70
2023/09/09 03:56:49;;;;;;;10.40;8.93;;;14.80;83.60;;;;;;6211421;28;20199;-70
2023/09/09 03:59:50;;;;;;;9.63;8.53;;;14.80;83.80;;;;;;6207103;28;20196;-70
2023/09/09 04:02:50;;;;;;;10.00;9.00;;;14.80;83.60;;;;;;6185571;28;20204;-70
2023/09/09 04:05:51;;;;;;;9.97;9.00;;;14.80;83.60;;;;;;6201744;28;20223;-70
2023/09/09 04:08:55;;;;;;;10.17;9.03;;;14.80;83.70;;;;;;6192000;28;20204;-70
2023/09/09 04:11:56;;;;;;;10.87;9.60;;;14.80;83.50;;;;;;6187189;28;20250;-70
2023/09/09 04:14:57;;;;;;;10.80;9.70;;;14.80;83.40;;;;;;6183477;28;20196;-70
2023/09/09 04:17:58;;;;;;;9.73;8.73;;;14.80;83.80;;;;;;6213817;28;20222;-70
2023/09/09 04:20:58;;;;;;;10.03;9.03;;;14.70;83.90;;;;;;6186039;28;20188;-70
2023/09/09 04:23:59;;;;;;;10.30;8.90;;;14.70;83.60;;;;;;6205293;28;20230;-70
2023/09/09 04:26:59;;;;;;;11.90;9.73;;;14.70;83.40;;;;;;6190932;28;20222;-70
2023/09/09 04:30:00;;;;;;;10.13;9.17;;;14.70;83.50;;;;;;6190304;28;20195;-70
2023/09/09 04:33:01;;;;;;;9.43;8.47;;;14.70;83.30;;;;;;6204465;28;20197;-70
2023/09/09 04:36:02;;;;;;;9.57;8.70;;;14.60;83.30;;;;;;6196261;28;20208;-70
2023/09/09 04:39:02;;;;;;;11.20;9.17;;;14.60;83.60;;;;;;6217202;28;20195;-70
2023/09/09 04:42:03;;;;;;;9.20;8.30;;;14.60;83.50;;;;;;6183362;28;20194;-70
2023/09/09 04:45:05;;;;;;;10.97;9.63;;;14.60;83.70;;;;;;6189372;28;20298;-70
2023/09/09 04:48:05;;;;;;;9.87;8.97;;;14.60;83.90;;;;;;6215209;28;20240;-70
2023/09/09 04:51:07;;;;;;;10.83;9.43;;;14.60;84.00;;;;;;6220467;28;20218;-70
2023/09/09 04:54:07;;;;;;;10.43;9.40;;;14.60;84.20;;;;;;6192496;28;20188;-70
2023/09/09 04:57:08;;;;;;;10.13;9.13;;;14.60;84.30;;;;;;6182564;28;20188;-70
2023/09/09 05:00:10;;;;;;;10.07;9.13;;;14.70;84.60;;;;;;6203787;28;20200;-70
2023/09/09 05:03:11;;;;;;;11.67;9.73;;;14.70;84.60;;;;;;6218884;28;20227;-70
2023/09/09 05:06:11;;;;;;;10.93;9.30;;;14.70;84.70;;;;;;6193175;28;20215;-70
2023/09/09 05:09:12;;;;;;;11.10;9.93;;;14.70;84.60;;;;;;6201364;28;20195;-74
2023/09/09 05:12:13;;;;;;;10.27;9.27;;;14.70;84.10;;;;;;6205920;28;20187;-72
2023/09/09 05:15:14;;;;;;;10.53;9.50;;;14.70;83.90;;;;;;6192048;28;20223;-70
2023/09/09 05:18:15;;;;;;;9.60;8.70;;;14.70;83.60;;;;;;6195732;28;20192;-71
2023/09/09 05:21:15;;;;;;;9.33;8.50;;;14.70;83.90;;;;;;6183224;28;20205;-71
2023/09/09 05:24:16;;;;;;;10.47;9.07;;;14.70;83.70;;;;;;6178114;28;20239;-71
2023/09/09 05:27:17;;;;;;;10.37;9.23;;;14.70;83.90;;;;;;6193545;28;20198;-71
2023/09/09 05:30:17;;;;;;;12.27;10.17;;;14.70;84.20;;;;;;6194792;28;20297;-71
2023/09/09 05:33:18;;;;;;;10.40;9.30;;;14.70;84.10;;;;;;6215109;28;20282;-70
2023/09/09 05:36:19;;;;;;;10.33;9.43;;;14.80;84.10;;;;;;6223801;28;20192;-71
2023/09/09 05:39:20;;;;;;;11.60;9.37;;;14.80;84.30;;;;;;6193395;28;20291;-72
2023/09/09 05:42:20;;;;;;;10.77;9.67;;;14.80;84.40;;;;;;6216499;28;20196;-73
2023/09/09 05:45:21;;;;;;;10.20;9.30;;;14.90;84.70;;;;;;6191905;28;20220;-71
2023/09/09 05:48:21;;;;;;;10.97;9.87;;;14.90;84.80;;;;;;6189458;28;20271;-71
2023/09/09 05:51:22;;;;;;;10.47;9.33;;;14.90;85.20;;;;;;6207130;28;20195;-71
2023/09/09 05:54:23;;;;;;;11.30;9.10;;;15.00;84.80;;;;;;6206956;28;20191;-71
2023/09/09 05:57:24;;;;;;;10.27;9.27;;;15.00;85.10;;;;;;6192678;28;20265;-72
2023/09/09 06:00:24;;;;;;;11.50;10.30;;;15.00;85.40;;;;;;6180623;28;20191;-70
2023/09/09 06:03:26;;;;;;;11.20;9.93;;;15.00;85.10;;;;;;6209264;28;20230;-72
2023/09/09 06:06:26;;;;;;;10.83;9.73;;;15.10;85.60;;;;;;6213451;28;20223;-72
2023/09/09 06:09:27;;;;;;;11.27;10.17;;;15.10;85.40;;;;;;6199073;28;20210;-72
2023/09/09 06:12:28;;;;;;;11.50;10.30;;;15.20;85.40;;;;;;6217189;28;20188;-70
2023/09/09 06:15:28;;;;;;;11.30;10.10;;;15.20;85.50;;;;;;6215204;28;20193;-70
2023/09/09 06:18:29;;;;;;;12.63;10.43;;;15.30;85.60;;;;;;6209137;28;20203;-71
2023/09/09 06:21:30;;;;;;;14.07;11.13;;;15.30;85.30;;;;;;6202415;28;20191;-72
2023/09/09 06:24:30;;;;;;;12.60;11.30;;;15.40;85.20;;;;;;6206868;28;20296;-71
2023/09/09 06:27:31;;;;;;;13.53;10.90;;;15.40;85.30;;;;;;6205493;28;20204;-71
2023/09/09 06:30:34;;;;;;;12.30;10.80;;;15.40;85.20;;;;;;6193657;28;20218;-71
2023/09/09 06:33:34;;;;;;;11.00;10.00;;;15.50;85.40;;;;;;6206280;28;20196;-63
2023/09/09 06:36:35;;;;;;;12.20;10.90;;;15.50;85.40;;;;;;6195293;28;20192;-63
2023/09/09 06:39:36;;;;;;;13.27;10.93;;;15.60;85.40;;;;;;6193149;28;20198;-63
2023/09/09 06:42:36;;;;;;;11.67;10.47;;;15.60;85.50;;;;;;6202276;28;20191;-64
2023/09/09 06:45:37;;;;;;;11.70;10.47;;;15.60;85.50;;;;;;6174639;28;20212;-62
2023/09/09 06:48:38;;;;;;;11.70;10.60;;;15.60;85.60;;;;;;6187477;28;20215;-63
2023/09/09 06:51:38;;;;;;;11.70;10.60;;;15.70;84.60;;;;;;6203877;28;20217;-63
2023/09/09 06:54:39;;;;;;;12.17;10.20;;;15.80;84.30;;;;;;6193156;28;20195;-63
2023/09/09 06:57:40;;;;;;;11.13;10.07;;;15.80;84.50;;;;;;6206459;28;20290;-63
2023/09/09 07:00:41;;;;;;;12.33;11.03;;;15.80;84.30;;;;;;6179886;28;20233;-63
2023/09/09 07:03:42;;;;;;;11.33;9.90;;;15.80;84.80;;;;;;6223207;28;20287;-63
2023/09/09 07:06:42;;;;;;;12.27;10.83;;;15.80;84.40;;;;;;6169799;28;20212;-63
2023/09/09 07:09:43;;;;;;;12.27;10.90;;;15.90;84.50;;;;;;6179732;28;20218;-63
2023/09/09 07:12:44;;;;;;;12.13;10.80;;;16.00;84.30;;;;;;6194895;28;20275;-63
2023/09/09 07:15:45;;;;;;;14.03;10.43;;;16.00;84.40;;;;;;6176793;28;20219;-63
2023/09/09 07:18:45;;;;;;;11.47;10.27;;;16.00;85.00;;;;;;6218787;28;20246;-64
2023/09/09 07:21:46;;;;;;;11.90;10.60;;;16.00;85.40;;;;;;6208547;28;20199;-63
2023/09/09 07:24:47;;;;;;;12.03;10.83;;;16.10;85.00;;;;;;6205813;28;20270;-64
2023/09/09 07:27:47;;;;;;;11.60;10.07;;;16.20;85.00;;;;;;6172841;28;20299;-63
2023/09/09 07:30:48;;;;;;;11.23;10.20;;;16.20;85.70;;;;;;6188837;28;20190;-64
2023/09/09 07:33:49;;;;;;;12.53;11.27;;;16.30;85.10;;;;;;6188452;28;20194;-63
2023/09/09 07:36:50;;;;;;;13.43;11.67;;;16.40;85.40;;;;;;6200036;28;20206;-63
2023/09/09 07:39:51;;;;;;;11.73;10.63;;;16.40;85.60;;;;;;6201400;28;20200;-63
2023/09/09 07:42:53;;;;;;;12.30;11.13;;;16.50;85.00;;;;;;6216287;28;20197;-63
2023/09/09 07:45:55;;;;;;;13.60;10.80;;;16.60;85.40;;;;;;6223241;28;20203;-64
2023/09/09 07:48:55;;;;;;;11.77;10.77;;;16.60;85.70;;;;;;6200602;28;20259;-63
2023/09/09 07:51:56;;;;;;;12.63;10.83;;;16.70;86.00;;;;;;6194416;28;20183;-64
2023/09/09 07:54:57;;;;;;;12.87;11.23;;;16.70;86.20;;;;;;6203145;28;20186;-63
2023/09/09 07:57:58;;;;;;;13.00;10.80;;;16.80;85.50;;;;;;6204050;28;20192;-64
2023/09/09 08:01:03;;;;;;;13.97;11.63;;;16.90;85.90;;;;;;6190760;28;20203;-64
2023/09/09 08:04:04;;;;;;;11.03;10.00;;;17.00;86.10;;;;;;6217477;28;20216;-64
2023/09/09 08:07:05;;;;;;;13.33;11.00;;;17.00;85.00;;;;;;6185842;28;20187;-63
2023/09/09 08:10:08;;;;;;;12.80;10.90;;;17.10;85.30;;;;;;6170846;28;20199;-63
2023/09/09 08:13:09;;;;;;;12.93;11.60;;;17.20;84.80;;;;;;6185797;28;20212;-63
2023/09/09 08:16:10;;;;;;;14.13;10.70;;;17.20;84.40;;;;;;6191754;28;20209;-64
2023/09/09 08:19:11;;;;;;;12.50;11.20;;;17.40;83.20;;;;;;6214031;28;20199;-63
2023/09/09 08:22:11;;;;;;;11.63;10.53;;;17.50;82.60;;;;;;6203566;28;20202;-62
2023/09/09 08:25:12;;;;;;;11.60;10.50;;;17.60;82.10;;;;;;6189760;28;20258;-63
2023/09/09 08:28:13;;;;;;;12.27;11.03;;;17.80;82.00;;;;;;6189252;28;20226;-64
2023/09/09 08:31:13;;;;;;;11.60;10.57;;;17.80;82.50;;;;;;6207124;28;20189;-64
2023/09/09 08:34:14;;;;;;;11.67;10.47;;;17.90;81.90;;;;;;6195475;28;20191;-63
2023/09/09 08:37:15;;;;;;;11.30;10.10;;;18.10;80.70;;;;;;6187507;28;20274;-64
2023/09/09 08:40:16;;;;;;;11.13;10.13;;;18.20;80.80;;;;;;6202553;28;20192;-63
2023/09/09 08:43:39;;;;;;;9.80;8.93;;;18.20;80.70;;;;;;6181833;28;20206;-63
2023/09/09 08:46:39;;;;;;;10.53;9.23;;;18.20;80.50;;;;;;6234670;28;20243;-64
2023/09/09 08:49:43;;;;;;;9.10;8.23;;;18.30;80.30;;;;;;6215302;28;20192;-65
2023/09/09 08:52:46;;;;;;;10.87;8.87;;;18.50;78.00;;;;;;6214661;28;20197;-64
2023/09/09 08:55:47;;;;;;;10.13;9.23;;;18.50;77.70;;;;;;6184838;28;20207;-64
2023/09/09 08:58:48;;;;;;;9.23;8.33;;;18.70;77.70;;;;;;6184429;28;20199;-64
2023/09/09 09:01:50;;;;;;;11.30;9.00;;;18.80;78.20;;;;;;6183073;28;20199;-64
2023/09/09 09:04:52;;;;;;;10.00;8.60;;;18.90;78.00;;;;;;6187687;28;20215;-64
2023/09/09 09:07:53;;;;;;;9.37;8.57;;;19.00;78.10;;;;;;6202685;28;20199;-64
2023/09/09 09:10:57;;;;;;;9.50;8.50;;;19.10;78.60;;;;;;6186653;28;20194;-64
2023/09/09 09:14:07;;;;;;;9.30;8.50;;;19.10;78.40;;;;;;6198143;28;20203;-64
2023/09/09 09:17:07;;;;;;;9.83;8.83;;;19.20;77.70;;;;;;6212414;28;20196;-64
2023/09/09 09:20:25;;;;;;;8.50;7.80;;;19.30;76.50;;;;;;6207905;28;20198;-64
2023/09/09 09:23:26;;;;;;;8.00;7.37;;;19.30;75.30;;;;;;6223142;28;20262;-64
2023/09/09 09:26:28;;;;;;;7.57;6.80;;;19.40;73.70;;;;;;6186311;28;20317;-64
2023/09/09 09:29:41;;;;;;;7.07;6.47;;;19.50;70.00;;;;;;6196380;28;20555;-64
2023/09/09 09:32:42;;;;;;;7.73;6.93;;;19.70;70.80;;;;;;6231372;28;20226;-64
2023/09/09 09:35:42;;;;;;;8.30;7.60;;;19.70;70.30;;;;;;6202346;28;20195;-65
2023/09/09 09:38:43;;;;;;;7.33;6.63;;;19.90;70.60;;;;;;6228921;28;20311;-64
2023/09/09 09:41:44;;;;;;;9.33;7.43;;;20.00;71.50;;;;;;6188817;28;20230;-63
2023/09/09 09:44:45;;;;;;;8.97;8.00;;;20.00;71.00;;;;;;6184307;28;20214;-64
2023/09/09 09:47:50;;;;;;;8.20;7.43;;;20.10;71.10;;;;;;6171652;28;20192;-64
2023/09/09 09:50:54;;;;;;;7.87;7.17;;;20.10;70.60;;;;;;6215985;28;20275;-65
2023/09/09 09:53:55;;;;;;;8.47;7.63;;;20.20;71.00;;;;;;6223141;28;20199;-64
2023/09/09 09:57:02;;;;;;;14.33;7.83;;;20.30;71.10;;;;;;6187480;28;20199;-65
2023/09/09 10:00:06;;;;;;;8.10;7.20;;;20.30;71.30;;;;;;6221222;28;20187;-65
2023/09/09 10:03:12;;;;;;;22.57;20.77;;;20.40;70.10;;;;;;6191770;28;20294;-64
2023/09/09 10:06:17;;;;;;;7.33;6.63;;;;;;;;;;6217276;28;20218;-64
2023/09/09 10:09:23;;;;;;;8.83;7.90;;;;;;;;;;6217057;28;20191;-64
2023/09/09 10:12:35;;;;;;;8.30;7.37;;;20.50;65.10;;;;;;6207827;28;20183;-65
2023/09/09 10:15:37;;;;;;;7.80;7.13;;;21.20;63.20;;;;;;6230402;28;20191;-65
2023/09/09 10:18:39;;;;;;;6.77;6.10;;;21.40;61.30;;;;;;6202884;28;20230;-63
2023/09/09 10:21:42;;;;;;;6.50;5.90;;;21.50;60.20;;;;;;6180836;28;20199;-67
2023/09/09 10:24:45;;;;;;;6.50;5.80;;;;;;;;;;6218848;28;20342;-63
2023/09/09 10:27:48;;;;;;;7.70;6.90;;;24.00;50.00;;;;;;6232638;28;20195;-64
2023/09/09 10:30:49;;;;;;;6.50;5.90;;;;;;;;;;6217697;28;20199;-64
2023/09/09 10:33:50;;;;;;;7.27;5.53;;;21.80;60.60;;;;;;6206800;28;20262;-63
2023/09/09 10:36:53;;;;;;;11.60;6.03;;;22.10;55.90;;;;;;6183462;28;20201;-63
2023/09/09 10:39:55;;;;;;;86.53;78.10;;;22.10;56.00;;;;;;6204113;28;20211;-63
2023/09/09 10:42:55;;;;;;;15.47;13.93;;;22.20;58.70;;;;;;6217830;28;20211;-64
2023/09/09 10:45:56;;;;;;;89.80;80.13;;;22.30;57.90;;;;;;6221901;28;20657;-63
2023/09/09 10:48:57;;;;;;;136.87;121.87;;;;;;;;;;6201915;28;20195;-62
2023/09/09 10:51:58;;;;;;;65.17;58.93;;;;;;;;;;6203513;28;20194;-63
2023/09/09 10:55:12;;;;;;;12.87;11.47;;;;;;;;;;6220452;28;20194;-63
2023/09/09 10:58:17;;;;;;;33.30;30.27;;;;;;;;;;6213459;28;20215;-63
2023/09/09 11:01:23;;;;;;;20.43;18.37;;;22.40;58.20;;;;;;6205502;28;20235;-63
2023/09/09 11:04:24;;;;;;;10.00;9.10;;;22.70;56.70;;;;;;6207503;28;20191;-63
2023/09/09 11:07:41;;;;;;;11.83;10.23;;;22.80;55.80;;;;;;6191594;28;20188;-63
2023/09/09 11:10:42;;;;;;;9.80;8.83;;;22.80;56.10;;;;;;6221349;28;20198;-63
2023/09/09 11:13:51;;;;;;;7.53;5.60;;;22.90;55.40;;;;;;6192994;28;20195;-63
2023/09/09 11:16:56;;;;;;;7.07;6.47;;;;;;;;;;6224605;28;20238;-63
2023/09/09 11:19:57;;;;;;;7.03;6.43;;;;;;;;;;6196992;28;20192;-63
2023/09/09 11:22:59;;;;;;;8.77;7.87;;;;;;;;;;6203619;28;20238;-63
2023/09/09 11:26:01;;;;;;;9.50;7.73;;;;;;;;;;6214186;28;20211;-63
2023/09/09 11:29:03;;;;;;;7.97;7.27;;;23.00;50.90;;;;;;6215832;28;20250;-63
2023/09/09 11:32:10;;;;;;;6.67;5.97;;;;;;;;;;6197908;28;20201;-63
2023/09/09 11:35:11;;;;;;;7.40;6.00;;;;;;;;;;6209507;28;20281;-63
2023/09/09 11:38:14;;;;;;;6.57;6.00;;;;;;;;;;6213244;28;20222;-63
2023/09/09 11:41:22;;;;;;;7.90;7.20;;;23.60;56.70;;;;;;6217252;28;20202;-63
2023/09/09 11:44:24;;;;;;;6.10;5.50;;;24.00;56.50;;;;;;6192361;28;20215;-63
2023/09/09 11:47:25;;;;;;;12.97;9.70;;;24.20;54.00;;;;;;6189556;28;20200;-63
2023/09/09 11:50:38;;;;;;;6.47;5.87;;;24.20;55.30;;;;;;6205576;28;20199;-63
2023/09/09 11:53:39;;;;;;;7.43;6.77;;;24.40;53.90;;;;;;6205409;28;20184;-63
2023/09/09 11:56:40;;;;;;;8.10;7.30;;;24.60;53.70;;;;;;6175731;28;20238;-62
2023/09/09 11:59:48;;;;;;;6.90;6.23;;;24.80;54.40;;;;;;6197817;28;20202;-63
2023/09/09 12:02:48;;;;;;;6.00;5.50;;;25.00;52.90;;;;;;6206260;28;20187;-62
2023/09/09 12:05:52;;;;;;;6.13;5.63;;;25.30;51.60;;;;;;6210562;28;20219;-62
2023/09/09 12:08:54;;;;;;;9.50;5.87;;;;;;;;;;6192745;28;20207;-61
2023/09/09 12:11:55;;;;;;;6.87;5.57;;;;;;;;;;6209118;28;20191;-63
2023/09/09 12:14:57;;;;;;;6.17;5.50;;;;;;;;;;6188211;28;20271;-62
2023/09/09 12:17:59;;;;;;;6.27;5.67;;;;;;;;;;6217646;28;20202;-62
2023/09/09 12:21:00;;;;;;;5.43;4.70;;;;;;;;;;6220742;28;20190;-62
2023/09/09 12:24:01;;;;;;;4.90;4.50;;;30.60;43.20;;;;;;6236267;28;20245;-61
2023/09/09 12:27:02;;;;;;;4.97;4.57;;;36.90;33.70;;;;;;6191656;28;20753;-65
2023/09/09 12:30:03;;;;;;;4.63;4.15;;;;;;;;;;6181513;28;20194;-64
2023/09/09 12:33:05;;;;;;;4.93;4.43;;;38.10;32.00;;;;;;6200522;28;20199;-63
2023/09/09 12:36:17;;;;;;;4.68;4.05;;;40.00;28.70;;;;;;6197462;28;20187;-63
2023/09/09 12:39:25;;;;;;;5.10;4.60;;;40.00;29.20;;;;;;6208967;28;20226;-62
2023/09/09 12:42:26;;;;;;;5.55;4.25;;;23.60;29.10;;;;;;6202474;28;20198;-61
2023/09/09 12:45:27;;;;;;;4.93;4.13;;;;;;;;;;6187785;28;20207;-63
2023/09/09 12:48:28;;;;;;;4.70;4.20;;;;;;;;;;6207068;28;20191;-62
2023/09/09 12:51:30;;;;;;;5.38;4.88;;;;;;;;;;6204159;28;20183;-63
2023/09/09 12:54:31;;;;;;;4.78;4.45;;;;;;;;;;6208146;28;20272;-63
2023/09/09 12:57:32;;;;;;;6.45;4.25;;;36.60;33.80;;;;;;6193701;28;20211;-64
2023/09/09 13:00:34;;;;;;;6.47;4.45;;;36.70;33.20;;;;;;6188689;28;20194;-62
2023/09/09 13:03:34;;;;;;;4.78;4.07;;;38.00;33.40;;;;;;6200721;28;20278;-63
2023/09/09 13:06:35;;;;;;;4.65;4.25;;;;;;;;;;6188626;28;20221;-63
2023/09/09 13:09:36;;;;;;;4.18;3.80;;;40.60;31.00;;;;;;6206050;28;20234;-63
2023/09/09 13:12:37;;;;;;;4.97;3.90;;;;;;;;;;6189407;28;20202;-62
2023/09/09 13:15:38;;;;;;;4.90;4.40;;;;;;;;;;6217963;28;20191;-62
2023/09/09 13:18:39;;;;;;;4.20;3.88;;;;;;;;;;6211306;28;20198;-65
2023/09/09 13:21:40;;;;;;;5.57;3.78;;;;;;;;;;6206383;28;20190;-65
2023/09/09 13:24:41;;;;;;;4.20;3.83;;;44.20;27.40;;;;;;6195087;28;20243;-65
2023/09/09 13:27:42;;;;;;;4.75;4.35;;;44.60;26.40;;;;;;6187167;28;20191;-65
2023/09/09 13:30:43;;;;;;;3.72;3.40;;;45.00;25.80;;;;;;6205728;28;20191;-66
2023/09/09 13:33:44;;;;;;;4.13;3.72;;;20.10;26.20;;;;;;6205973;28;20188;-66
2023/09/09 13:36:45;;;;;;;4.07;3.67;;;45.20;26.00;;;;;;6204798;28;20305;-64
2023/09/09 13:39:46;;;;;;;4.13;3.65;;;;;;;;;;6205355;28;20245;-63
2023/09/09 13:42:47;;;;;;;4.45;4.15;;;;;;;;;;6204675;28;20197;-65
2023/09/09 13:45:52;;;;;;;4.60;3.53;;;;;;;;;;6218024;28;20211;-63
2023/09/09 13:48:53;;;;;;;4.00;3.70;;;;;;;;;;6208600;28;20179;-62
2023/09/09 13:51:54;;;;;;;5.30;3.80;;;;;;;;;;6206334;28;20254;-63
2023/09/09 13:54:55;;;;;;;4.35;3.95;;;;;;;;;;6211055;28;20262;-63
2023/09/09 13:57:56;;;;;;;4.53;3.72;;;;;;;;;;6212937;28;20273;-62
2023/09/09 14:00:57;;;;;;;4.80;3.95;;;;;;;;;;6210741;28;20245;-63
2023/09/09 14:03:58;;;;;;;4.60;4.20;;;;;;;;;;6202611;28;20194;-64
2023/09/09 14:06:59;;;;;;;4.20;3.88;;;;;;;;;;6210728;28;20242;-63
2023/09/09 14:10:00;;;;;;;4.07;3.67;;;;;;;;;;6211144;28;20189;-63
2023/09/09 14:13:01;;;;;;;6.13;4.30;;;;;;;;;;6203165;28;20279;-63
2023/09/09 14:16:02;;;;;;;4.47;4.15;;;;;;;;;;6210611;28;20218;-63
2023/09/09 14:19:03;;;;;;;4.13;3.83;;;;;;;;;;6202550;28;20285;-64
2023/09/09 14:22:04;;;;;;;4.30;4.00;;;;;;;;;;6214229;28;20268;-63
2023/09/09 14:25:06;;;;;;;3.95;3.65;;;;;;;;;;6224894;28;20230;-65
2023/09/09 14:28:07;;;;;;;4.35;4.05;;;;;;;;;;6191213;28;20231;-64
2023/09/09 14:31:08;;;;;;;4.47;3.95;;;;;;;;;;6206061;28;20186;-69
2023/09/09 14:34:09;;;;;;;3.95;3.60;;;;;;;;;;6213441;28;20200;-69
2023/09/09 14:37:10;;;;;;;4.47;4.13;;;;;;;;;;6224445;28;20221;-69
2023/09/09 14:40:11;;;;;;;4.28;3.88;;;;;;;;;;6188810;28;20222;-69
2023/09/09 14:43:12;;;;;;;6.40;4.13;;;;;;;;;;6217313;28;20740;-68
2023/09/09 14:46:13;;;;;;;4.50;4.10;;;;;;;;;;6212998;28;20234;-68
2023/09/09 14:49:14;;;;;;;4.10;3.80;;;;;;;;;;6207913;28;20191;-68
2023/09/09 14:52:16;;;;;;;4.40;4.00;;;;;;;;;;6203384;28;20195;-68
2023/09/09 14:55:17;;;;;;;4.47;3.60;;;;;;;;;;6210542;28;20294;-68
2023/09/09 14:58:17;;;;;;;4.25;3.92;;;45.40;25.80;;;;;;6197560;28;20190;-68
2023/09/09 15:01:18;;;;;;;4.07;3.63;;;;;;;;;;6209028;28;20210;-69
2023/09/09 15:04:19;;;;;;;5.00;3.78;;;43.50;27.90;;;;;;6220222;28;20204;-69
2023/09/09 15:07:20;;;;;;;5.78;4.00;;;42.40;28.10;;;;;;6192924;28;20184;-68
2023/09/09 15:10:20;;;;;;;6.18;4.70;;;41.90;27.80;;;;;;6189733;28;20179;-69
2023/09/09 15:13:21;;;;;;;4.72;4.30;;;41.20;29.40;;;;;;6193275;28;20179;-68
2023/09/09 15:16:22;;;;;;;4.72;4.32;;;40.20;31.10;;;;;;6207988;28;20195;-68
2023/09/09 15:19:23;;;;;;;4.93;4.50;;;39.00;31.70;;;;;;6220442;28;20191;-68
2023/09/09 15:22:23;;;;;;;4.90;4.50;;;37.60;33.00;;;;;;6203749;28;20203;-68
2023/09/09 15:25:24;;;;;;;5.00;4.60;;;36.50;34.10;;;;;;6208894;28;20207;-69
2023/09/09 15:28:24;;;;;;;4.70;4.20;;;35.60;35.30;;;;;;6189101;28;20218;-69
2023/09/09 15:31:26;;;;;;;8.37;5.20;;;;;;;;;;6225187;28;20191;-71
2023/09/09 15:34:27;;;;;;;6.20;4.67;;;;;;;;;;6200922;28;20184;-71
2023/09/09 15:37:27;;;;;;;5.67;5.03;;;34.70;36.80;;;;;;6224396;28;20195;-71
2023/09/09 15:40:28;;;;;;;5.30;4.80;;;6.10;37.50;;;;;;6193582;28;20179;-70
2023/09/09 15:43:28;;;;;;;5.90;5.30;;;32.30;39.30;;;;;;6200771;28;20187;-70
2023/09/09 15:46:29;;;;;;;5.80;5.00;;;31.90;39.80;;;;;;6211112;28;20223;-71
2023/09/09 15:49:30;;;;;;;5.37;4.97;;;31.50;41.00;;;;;;6204701;28;20261;-71
2023/09/09 15:52:31;;;;;;;5.90;4.73;;;;;;;;;;6217966;28;20212;-72
2023/09/09 15:55:31;;;;;;;6.07;4.83;;;31.20;42.20;;;;;;6211249;28;20192;-70
2023/09/09 15:58:32;;;;;;;5.40;4.90;;;30.70;42.60;;;;;;6194178;28;20195;-71
2023/09/09 16:01:33;;;;;;;5.57;4.70;;;30.50;43.90;;;;;;6213976;28;20222;-69